Terminal Aerodrome Forecast
Issued by NWS

Home | Current Version | Previous Version | Text Only | Print | Product List | Glossary On
Versions: 1 2 3 4 5 6 7 8 9 10 11 12 13 14 15 16 17 18
000
FTUS43 KIND 302300
TAFLAF
TAF
KLAF 302320Z 0100/0124 31007KT P6SM FEW050
     FM010300 VRB03KT P6SM SCT250
      TEMPO 0109/0113 3SM BR
     FM011700 35005KT P6SM BKN040
      AMD LTD TO CLD VIS AND WIND 0101/0113=

USA.gov is the U.S. government's official web portal to all federal, state and local government web resources and services.